Inez, Texas
Current Conditions -  °F | °C
As of 4:51 AM on Sunday 23 Nov 2014 (Local Time) from KVCT Reporting Station
Clear Clear  
Wind Chill: 59°   Ceiling: Unl
Heat Index: 59°   Visibility: 10mi
Dew Point: 55°   Wind: 8mph
Humidity: 87%   Direction: 240°WSW
Pressure: 29.7"   Gusts: NA
Location:  28.9°N, 96.79°W
Report Text: KVCT 231051Z AUTO 24007KT 10SM CLR 15/13 A2970 RMK AO2 SLP055 T01500128
Loading
Personal Weather Stations






























Interactive Weather Map New forecast layout! Learn more

10-Day Weather Forecast

Advertisements
Track Severe Weather on mobile